sensor_id;sensor_type;location;lat;lon;timestamp;pressure;altitude;pressure_sealevel;temperature;humidity
18396;BME280;76377;45.194;5.734;2024-03-02T00:01:37;98252.69;;;7.46;72.76
18396;BME280;76377;45.194;5.734;2024-03-02T00:04:05;98262.97;;;7.49;72.35
18396;BME280;76377;45.194;5.734;2024-03-02T00:06:33;98256.72;;;7.52;72.40
18396;BME280;76377;45.194;5.734;2024-03-02T00:09:00;98256.75;;;7.33;75.17
18396;BME280;76377;45.194;5.734;2024-03-02T00:11:26;98261.66;;;7.05;78.38
18396;BME280;76377;45.194;5.734;2024-03-02T00:13:54;98261.56;;;7.01;79.92
18396;BME280;76377;45.194;5.734;2024-03-02T00:16:23;98267.28;;;6.92;80.79
18396;BME280;76377;45.194;5.734;2024-03-02T00:18:50;98268.38;;;6.88;81.91
18396;BME280;76377;45.194;5.734;2024-03-02T00:21:18;98268.56;;;6.79;83.09
18396;BME280;76377;45.194;5.734;2024-03-02T00:23:45;98261.13;;;6.64;84.77
18396;BME280;76377;45.194;5.734;2024-03-02T00:26:13;98265.84;;;6.63;84.92
18396;BME280;76377;45.194;5.734;2024-03-02T00:28:42;98264.16;;;6.59;84.95
18396;BME280;76377;45.194;5.734;2024-03-02T00:31:11;98264.88;;;6.56;85.40
18396;BME280;76377;45.194;5.734;2024-03-02T00:33:41;98258.34;;;6.45;86.29
18396;BME280;76377;45.194;5.734;2024-03-02T00:36:10;98269.34;;;6.45;86.25
18396;BME280;76377;45.194;5.734;2024-03-02T00:38:44;98265.44;;;6.46;86.68
18396;BME280;76377;45.194;5.734;2024-03-02T00:41:19;98260.22;;;6.41;86.73
18396;BME280;76377;45.194;5.734;2024-03-02T00:43:53;98268.19;;;6.46;86.50
18396;BME280;76377;45.194;5.734;2024-03-02T00:46:23;98270.03;;;6.42;86.44
18396;BME280;76377;45.194;5.734;2024-03-02T00:48:56;98270.03;;;6.42;86.58
18396;BME280;76377;45.194;5.734;2024-03-02T00:51:25;98276.34;;;6.42;86.81
18396;BME280;76377;45.194;5.734;2024-03-02T00:53:54;98279.34;;;6.37;86.71
18396;BME280;76377;45.194;5.734;2024-03-02T00:56:22;98279.72;;;6.36;86.95
18396;BME280;76377;45.194;5.734;2024-03-02T00:58:50;98269.88;;;6.35;87.55
18396;BME280;76377;45.194;5.734;2024-03-02T01:01:18;98280.78;;;6.31;87.37
18396;BME280;76377;45.194;5.734;2024-03-02T01:03:45;98282.88;;;6.38;87.51
18396;BME280;76377;45.194;5.734;2024-03-02T01:06:14;98284.59;;;6.26;88.00
18396;BME280;76377;45.194;5.734;2024-03-02T01:08:41;98286.78;;;6.21;88.12
18396;BME280;76377;45.194;5.734;2024-03-02T01:11:08;98281.56;;;6.16;88.42
18396;BME280;76377;45.194;5.734;2024-03-02T01:13:36;98275.72;;;6.17;88.77
18396;BME280;76377;45.194;5.734;2024-03-02T01:16:03;98285.44;;;6.15;88.50
18396;BME280;76377;45.194;5.734;2024-03-02T01:18:30;98280.41;;;6.17;88.71
18396;BME280;76377;45.194;5.734;2024-03-02T01:20:58;98277.13;;;6.11;88.56
18396;BME280;76377;45.194;5.734;2024-03-02T01:23:26;98272.34;;;6.08;89.09
18396;BME280;76377;45.194;5.734;2024-03-02T01:25:53;98272.09;;;6.13;89.00
18396;BME280;76377;45.194;5.734;2024-03-02T01:28:20;98275.19;;;5.96;90.53
18396;BME280;76377;45.194;5.734;2024-03-02T01:30:48;98269.16;;;6.06;90.33
18396;BME280;76377;45.194;5.734;2024-03-02T01:33:15;98276.94;;;6.04;90.89
18396;BME280;76377;45.194;5.734;2024-03-02T01:35:43;98269.69;;;5.96;91.08
18396;BME280;76377;45.194;5.734;2024-03-02T01:38:10;98269.69;;;5.96;91.23
18396;BME280;76377;45.194;5.734;2024-03-02T01:40:39;98275.09;;;5.92;90.80
18396;BME280;76377;45.194;5.734;2024-03-02T01:43:06;98265.00;;;5.96;90.71
18396;BME280;76377;45.194;5.734;2024-03-02T01:45:34;98267.41;;;5.98;91.14
18396;BME280;76377;45.194;5.734;2024-03-02T01:48:03;98265.19;;;6.04;90.24
18396;BME280;76377;45.194;5.734;2024-03-02T01:50:32;98260.50;;;6.04;90.30
18396;BME280;76377;45.194;5.734;2024-03-02T01:53:00;98262.78;;;6.02;90.62
18396;BME280;76377;45.194;5.734;2024-03-02T01:55:28;98257.13;;;5.95;90.81
18396;BME280;76377;45.194;5.734;2024-03-02T01:57:57;98264.47;;;5.91;91.16
18396;BME280;76377;45.194;5.734;2024-03-02T02:00:24;98259.66;;;5.88;91.53
18396;BME280;76377;45.194;5.734;2024-03-02T02:02:52;98264.72;;;5.86;91.27
18396;BME280;76377;45.194;5.734;2024-03-02T02:05:19;98256.38;;;5.82;91.52
18396;BME280;76377;45.194;5.734;2024-03-02T02:07:47;98253.72;;;5.86;91.18
18396;BME280;76377;45.194;5.734;2024-03-02T02:10:14;98252.84;;;5.82;91.34
18396;BME280;76377;45.194;5.734;2024-03-02T02:12:41;98241.94;;;5.69;91.87
18396;BME280;76377;45.194;5.734;2024-03-02T02:15:29;98244.66;;;5.69;92.13
18396;BME280;76377;45.194;5.734;2024-03-02T02:17:57;98251.75;;;5.70;92.49
18396;BME280;76377;45.194;5.734;2024-03-02T02:20:24;98250.38;;;5.77;92.11
18396;BME280;76377;45.194;5.734;2024-03-02T02:22:57;98240.53;;;5.76;92.31
18396;BME280;76377;45.194;5.734;2024-03-02T02:25:25;98240.53;;;5.76;92.23
18396;BME280;76377;45.194;5.734;2024-03-02T02:27:52;98247.28;;;5.78;92.39
18396;BME280;76377;45.194;5.734;2024-03-02T02:30:20;98248.38;;;5.89;91.72
18396;BME280;76377;45.194;5.734;2024-03-02T02:32:47;98240.28;;;5.81;91.85
18396;BME280;76377;45.194;5.734;2024-03-02T02:35:15;98235.50;;;5.78;92.22
18396;BME280;76377;45.194;5.734;2024-03-02T02:37:42;98234.63;;;5.74;92.41
18396;BME280;76377;45.194;5.734;2024-03-02T02:40:12;98229.81;;;5.70;92.83
18396;BME280;76377;45.194;5.734;2024-03-02T02:42:39;98241.94;;;5.69;92.90
18396;BME280;76377;45.194;5.734;2024-03-02T02:45:07;98229.03;;;5.70;93.27
18396;BME280;76377;45.194;5.734;2024-03-02T02:47:34;98225.84;;;5.68;93.36
18396;BME280;76377;45.194;5.734;2024-03-02T02:50:02;98226.63;;;5.68;93.45
18396;BME280;76377;45.194;5.734;2024-03-02T02:52:32;98227.63;;;5.76;93.21
18396;BME280;76377;45.194;5.734;2024-03-02T02:55:03;98224.31;;;5.70;92.84
18396;BME280;76377;45.194;5.734;2024-03-02T02:57:32;98227.44;;;5.69;92.93
18396;BME280;76377;45.194;5.734;2024-03-02T03:00:02;98226.53;;;5.65;93.23
18396;BME280;76377;45.194;5.734;2024-03-02T03:02:36;98232.81;;;5.65;93.08
18396;BME280;76377;45.194;5.734;2024-03-02T03:05:05;98219.06;;;5.78;92.18
18396;BME280;76377;45.194;5.734;2024-03-02T03:07:32;98218.16;;;5.74;92.22
18396;BME280;76377;45.194;5.734;2024-03-02T03:10:00;98216.09;;;5.70;92.89
18396;BME280;76377;45.194;5.734;2024-03-02T03:12:28;98210.97;;;5.69;92.97
18396;BME280;76377;45.194;5.734;2024-03-02T03:14:58;98213.34;;;5.70;92.73
18396;BME280;76377;45.194;5.734;2024-03-02T03:17:25;98218.25;;;5.77;92.17
18396;BME280;76377;45.194;5.734;2024-03-02T03:19:53;98213.56;;;5.78;92.22
18396;BME280;76377;45.194;5.734;2024-03-02T03:22:19;98215.88;;;5.76;92.12
18396;BME280;76377;45.194;5.734;2024-03-02T03:24:46;98221.75;;;5.90;91.37
18396;BME280;76377;45.194;5.734;2024-03-02T03:27:13;98228.81;;;5.91;91.04
18396;BME280;76377;45.194;5.734;2024-03-02T03:29:40;98213.31;;;5.83;91.60
18396;BME280;76377;45.194;5.734;2024-03-02T03:32:08;98218.44;;;5.84;92.20
18396;BME280;76377;45.194;5.734;2024-03-02T03:34:36;98212.59;;;5.86;92.07
18396;BME280;76377;45.194;5.734;2024-03-02T03:37:03;98208.25;;;5.85;91.43
18396;BME280;76377;45.194;5.734;2024-03-02T03:39:30;98201.00;;;5.77;92.22
18396;BME280;76377;45.194;5.734;2024-03-02T03:41:57;98188.03;;;5.89;91.39
18396;BME280;76377;45.194;5.734;2024-03-02T03:44:24;98198.09;;;5.85;91.20
18396;BME280;76377;45.194;5.734;2024-03-02T03:46:51;98181.53;;;5.82;91.44
18396;BME280;76377;45.194;5.734;2024-03-02T03:49:19;98192.69;;;5.89;91.11
18396;BME280;76377;45.194;5.734;2024-03-02T03:51:46;98193.41;;;5.86;91.59
18396;BME280;76377;45.194;5.734;2024-03-02T03:54:13;98191.81;;;5.85;92.05
18396;BME280;76377;45.194;5.734;2024-03-02T03:56:40;98198.88;;;5.86;92.07
18396;BME280;76377;45.194;5.734;2024-03-02T03:59:08;98189.50;;;5.87;92.09
18396;BME280;76377;45.194;5.734;2024-03-02T04:01:35;98185.81;;;5.95;91.25
18396;BME280;76377;45.194;5.734;2024-03-02T04:04:02;98191.09;;;5.88;92.13
18396;BME280;76377;45.194;5.734;2024-03-02T04:06:30;98184.72;;;5.84;92.83
18396;BME280;76377;45.194;5.734;2024-03-02T04:08:58;98176.06;;;5.82;93.35
18396;BME280;76377;45.194;5.734;2024-03-02T04:11:25;98171.63;;;5.77;92.89
18396;BME280;76377;45.194;5.734;2024-03-02T04:13:52;98172.88;;;5.80;93.12
18396;BME280;76377;45.194;5.734;2024-03-02T04:16:19;98163.50;;;5.81;92.98
18396;BME280;76377;45.194;5.734;2024-03-02T04:18:46;98170.94;;;5.80;93.17
18396;BME280;76377;45.194;5.734;2024-03-02T04:21:13;98168.47;;;5.91;92.82
18396;BME280;76377;45.194;5.734;2024-03-02T04:23:42;98169.16;;;5.88;93.30
18396;BME280;76377;45.194;5.734;2024-03-02T04:26:09;98167.03;;;5.97;92.84
18396;BME280;76377;45.194;5.734;2024-03-02T04:28:36;98171.09;;;6.03;92.54
18396;BME280;76377;45.194;5.734;2024-03-02T04:31:03;98165.44;;;6.12;91.90
18396;BME280;76377;45.194;5.734;2024-03-02T04:33:30;98170.38;;;6.06;92.14
18396;BME280;76377;45.194;5.734;2024-03-02T04:35:57;98166.41;;;6.04;92.17
18396;BME280;76377;45.194;5.734;2024-03-02T04:38:24;98166.41;;;6.04;92.10
18396;BME280;76377;45.194;5.734;2024-03-02T04:40:52;98173.97;;;5.91;91.72
18396;BME280;76377;45.194;5.734;2024-03-02T04:43:19;98168.47;;;5.91;92.14
18396;BME280;76377;45.194;5.734;2024-03-02T04:45:46;98173.47;;;5.89;93.15
18396;BME280;76377;45.194;5.734;2024-03-02T04:48:13;98180.13;;;5.88;92.70
18396;BME280;76377;45.194;5.734;2024-03-02T04:50:40;98184.00;;;5.87;93.09
18396;BME280;76377;45.194;5.734;2024-03-02T04:53:07;98176.84;;;5.82;93.28
18396;BME280;76377;45.194;5.734;2024-03-02T04:55:35;98176.22;;;5.89;92.26
18396;BME280;76377;45.194;5.734;2024-03-02T04:58:20;98174.84;;;5.95;92.49
18396;BME280;76377;45.194;5.734;2024-03-02T05:00:46;98170.22;;;5.99;92.14
18396;BME280;76377;45.194;5.734;2024-03-02T05:03:14;98171.81;;;6.00;91.03
18396;BME280;76377;45.194;5.734;2024-03-02T05:05:41;98171.09;;;6.03;92.13
18396;BME280;76377;45.194;5.734;2024-03-02T05:08:08;98169.34;;;5.95;92.45
18396;BME280;76377;45.194;5.734;2024-03-02T05:10:37;98169.34;;;5.95;92.10
18396;BME280;76377;45.194;5.734;2024-03-02T05:13:04;98165.09;;;5.82;93.14
18396;BME280;76377;45.194;5.734;2024-03-02T05:15:33;98167.38;;;5.80;93.52
18396;BME280;76377;45.194;5.734;2024-03-02T05:18:00;98167.38;;;5.80;93.98
18396;BME280;76377;45.194;5.734;2024-03-02T05:20:28;98168.28;;;5.84;94.00
18396;BME280;76377;45.194;5.734;2024-03-02T05:22:55;98165.81;;;5.79;94.20
18396;BME280;76377;45.194;5.734;2024-03-02T05:25:22;98162.34;;;5.82;95.07
18396;BME280;76377;45.194;5.734;2024-03-02T05:27:49;98165.25;;;5.89;94.21
18396;BME280;76377;45.194;5.734;2024-03-02T05:30:16;98164.72;;;5.83;94.79
18396;BME280;76377;45.194;5.734;2024-03-02T05:32:45;98152.09;;;5.79;94.84
18396;BME280;76377;45.194;5.734;2024-03-02T05:35:12;98156.50;;;5.83;94.33
18396;BME280;76377;45.194;5.734;2024-03-02T05:37:39;98155.72;;;5.83;94.04
18396;BME280;76377;45.194;5.734;2024-03-02T05:40:07;98153.75;;;5.67;94.42
18396;BME280;76377;45.194;5.734;2024-03-02T05:42:34;98144.56;;;5.76;93.89
18396;BME280;76377;45.194;5.734;2024-03-02T05:45:01;98150.56;;;5.65;94.92
18396;BME280;76377;45.194;5.734;2024-03-02T05:47:28;98141.91;;;5.63;95.23
18396;BME280;76377;45.194;5.734;2024-03-02T05:49:57;98158.44;;;5.51;95.91
18396;BME280;76377;45.194;5.734;2024-03-02T05:52:24;98154.28;;;5.57;95.27
18396;BME280;76377;45.194;5.734;2024-03-02T05:54:51;98152.34;;;5.42;96.38
18396;BME280;76377;45.194;5.734;2024-03-02T05:57:18;98141.47;;;5.46;96.08
18396;BME280;76377;45.194;5.734;2024-03-02T05:59:59;98143.13;;;5.50;95.28
18396;BME280;76377;45.194;5.734;2024-03-02T06:02:26;98138.53;;;5.54;95.62
18396;BME280;76377;45.194;5.734;2024-03-02T06:04:55;98134.75;;;5.43;96.15
18396;BME280;76377;45.194;5.734;2024-03-02T06:07:24;98135.88;;;5.42;96.31
18396;BME280;76377;45.194;5.734;2024-03-02T06:09:51;98126.78;;;5.38;96.10
18396;BME280;76377;45.194;5.734;2024-03-02T06:12:18;98122.81;;;5.51;95.61
18396;BME280;76377;45.194;5.734;2024-03-02T06:14:45;98121.13;;;5.47;96.42
18396;BME280;76377;45.194;5.734;2024-03-02T06:17:12;98124.66;;;5.47;96.93
18396;BME280;76377;45.194;5.734;2024-03-02T06:19:39;98119.19;;;5.47;97.22
18396;BME280;76377;45.194;5.734;2024-03-02T06:22:06;98120.31;;;5.46;97.48
18396;BME280;76377;45.194;5.734;2024-03-02T06:24:37;98117.50;;;5.58;97.26
18396;BME280;76377;45.194;5.734;2024-03-02T06:27:05;98110.94;;;5.63;95.84
18396;BME280;76377;45.194;5.734;2024-03-02T06:29:32;98111.13;;;5.70;95.33
18396;BME280;76377;45.194;5.734;2024-03-02T06:32:00;98113.06;;;5.69;95.61
18396;BME280;76377;45.194;5.734;2024-03-02T06:34:27;98110.66;;;5.68;95.29
18396;BME280;76377;45.194;5.734;2024-03-02T06:36:54;98107.69;;;5.73;95.28
18396;BME280;76377;45.194;5.734;2024-03-02T06:39:21;98107.84;;;5.64;95.14
18396;BME280;76377;45.194;5.734;2024-03-02T06:41:49;98102.09;;;5.69;94.97
18396;BME280;76377;45.194;5.734;2024-03-02T06:44:17;98114.91;;;5.65;95.03
18396;BME280;76377;45.194;5.734;2024-03-02T06:46:44;98109.00;;;5.79;94.56
18396;BME280;76377;45.194;5.734;2024-03-02T06:49:11;98105.91;;;5.81;94.05
18396;BME280;76377;45.194;5.734;2024-03-02T06:51:38;98103.16;;;5.81;93.20
18396;BME280;76377;45.194;5.734;2024-03-02T06:54:05;98100.50;;;5.68;93.76
18396;BME280;76377;45.194;5.734;2024-03-02T06:56:32;98097.03;;;5.71;94.07
18396;BME280;76377;45.194;5.734;2024-03-02T06:59:01;98099.63;;;5.64;94.89
18396;BME280;76377;45.194;5.734;2024-03-02T07:01:28;98104.94;;;5.57;95.17
18396;BME280;76377;45.194;5.734;2024-03-02T07:03:55;98089.38;;;5.46;96.12
18396;BME280;76377;45.194;5.734;2024-03-02T07:06:22;98098.56;;;5.53;96.33
18396;BME280;76377;45.194;5.734;2024-03-02T07:08:49;98105.41;;;6.10;93.61
18396;BME280;76377;45.194;5.734;2024-03-02T07:11:16;98092.34;;;6.39;89.82
18396;BME280;76377;45.194;5.734;2024-03-02T07:13:43;98084.81;;;6.74;88.27
18396;BME280;76377;45.194;5.734;2024-03-02T07:16:11;98082.72;;;6.87;85.78
18396;BME280;76377;45.194;5.734;2024-03-02T07:18:58;98074.22;;;6.95;85.76
18396;BME280;76377;45.194;5.734;2024-03-02T07:21:27;98068.78;;;6.38;88.63
18396;BME280;76377;45.194;5.734;2024-03-02T07:23:54;98070.06;;;6.63;88.78
18396;BME280;76377;45.194;5.734;2024-03-02T07:26:21;98064.22;;;6.64;87.77
18396;BME280;76377;45.194;5.734;2024-03-02T07:28:48;98054.63;;;6.55;88.47
18396;BME280;76377;45.194;5.734;2024-03-02T07:31:17;98058.78;;;6.87;87.17
18396;BME280;76377;45.194;5.734;2024-03-02T07:33:44;98063.44;;;6.45;87.93
18396;BME280;76377;45.194;5.734;2024-03-02T07:36:13;98068.94;;;6.25;90.11
18396;BME280;76377;45.194;5.734;2024-03-02T07:38:40;98064.41;;;6.17;90.25
18396;BME280;76377;45.194;5.734;2024-03-02T07:41:08;98057.38;;;6.36;89.66
18396;BME280;76377;45.194;5.734;2024-03-02T07:43:37;98054.34;;;6.41;88.82
18396;BME280;76377;45.194;5.734;2024-03-02T07:46:04;98062.84;;;6.36;89.78
18396;BME280;76377;45.194;5.734;2024-03-02T07:48:33;98043.34;;;6.60;87.94
18396;BME280;76377;45.194;5.734;2024-03-02T07:51:00;98036.63;;;6.77;87.12
18396;BME280;76377;45.194;5.734;2024-03-02T07:53:28;98042.19;;;7.03;84.87
18396;BME280;76377;45.194;5.734;2024-03-02T07:55:55;98028.81;;;7.02;84.51
18396;BME280;76377;45.194;5.734;2024-03-02T07:58:27;98023.91;;;7.37;83.43
18396;BME280;76377;45.194;5.734;2024-03-02T08:00:54;98026.00;;;7.44;81.33
18396;BME280;76377;45.194;5.734;2024-03-02T08:03:21;98014.94;;;7.67;80.66
18396;BME280;76377;45.194;5.734;2024-03-02T08:05:50;98008.88;;;9.18;72.20
18396;BME280;76377;45.194;5.734;2024-03-02T08:08:17;98004.22;;;10.46;64.81
18396;BME280;76377;45.194;5.734;2024-03-02T08:10:44;98003.59;;;11.56;61.20
18396;BME280;76377;45.194;5.734;2024-03-02T08:13:12;98011.81;;;12.23;57.78
18396;BME280;76377;45.194;5.734;2024-03-02T08:15:39;97996.78;;;13.01;54.91
18396;BME280;76377;45.194;5.734;2024-03-02T08:18:06;98006.06;;;12.70;54.13
18396;BME280;76377;45.194;5.734;2024-03-02T08:20:34;97997.88;;;13.66;52.33
18396;BME280;76377;45.194;5.734;2024-03-02T08:23:03;97988.38;;;15.00;48.74
18396;BME280;76377;45.194;5.734;2024-03-02T08:25:30;97991.34;;;15.66;46.96
18396;BME280;76377;45.194;5.734;2024-03-02T08:27:58;97986.03;;;17.47;43.32
18396;BME280;76377;45.194;5.734;2024-03-02T08:30:25;97987.06;;;18.31;40.72
18396;BME280;76377;45.194;5.734;2024-03-02T08:32:52;97982.75;;;18.42;39.92
18396;BME280;76377;45.194;5.734;2024-03-02T08:35:19;97973.44;;;18.74;38.77
18396;BME280;76377;45.194;5.734;2024-03-02T08:37:48;97976.53;;;19.91;37.20
18396;BME280;76377;45.194;5.734;2024-03-02T08:40:16;97961.56;;;19.59;36.62
18396;BME280;76377;45.194;5.734;2024-03-02T08:42:44;97960.41;;;19.69;37.58
18396;BME280;76377;45.194;5.734;2024-03-02T08:45:11;97947.13;;;18.84;38.02
18396;BME280;76377;45.194;5.734;2024-03-02T08:47:38;97950.59;;;19.01;38.19
18396;BME280;76377;45.194;5.734;2024-03-02T08:50:06;97948.47;;;19.18;37.46
18396;BME280;76377;45.194;5.734;2024-03-02T08:52:34;97934.72;;;20.40;35.36
18396;BME280;76377;45.194;5.734;2024-03-02T08:55:01;97939.25;;;18.67;38.04
18396;BME280;76377;45.194;5.734;2024-03-02T08:57:29;97930.41;;;19.44;37.08
18396;BME280;76377;45.194;5.734;2024-03-02T08:59:57;97928.88;;;18.92;37.72
18396;BME280;76377;45.194;5.734;2024-03-02T09:02:24;97925.72;;;19.76;36.55
18396;BME280;76377;45.194;5.734;2024-03-02T09:04:52;97931.28;;;20.01;36.29
18396;BME280;76377;45.194;5.734;2024-03-02T09:07:19;97930.19;;;18.63;37.92
18396;BME280;76377;45.194;5.734;2024-03-02T09:09:46;97923.06;;;17.42;40.71
18396;BME280;76377;45.194;5.734;2024-03-02T09:12:13;97922.84;;;15.69;44.46
18396;BME280;76377;45.194;5.734;2024-03-02T09:14:42;97906.47;;;15.01;46.27
18396;BME280;76377;45.194;5.734;2024-03-02T09:17:09;97909.28;;;14.13;48.60
18396;BME280;76377;45.194;5.734;2024-03-02T09:19:37;97909.94;;;14.24;48.81
18396;BME280;76377;45.194;5.734;2024-03-02T09:22:05;97908.44;;;14.16;48.50
18396;BME280;76377;45.194;5.734;2024-03-02T09:24:32;97894.41;;;13.58;49.89
18396;BME280;76377;45.194;5.734;2024-03-02T09:26:59;97886.25;;;13.41;50.91
18396;BME280;76377;45.194;5.734;2024-03-02T09:29:27;97889.16;;;13.26;51.01
18396;BME280;76377;45.194;5.734;2024-03-02T09:31:55;97885.72;;;12.60;53.31
18396;BME280;76377;45.194;5.734;2024-03-02T09:34:22;97879.00;;;12.57;53.58
18396;BME280;76377;45.194;5.734;2024-03-02T09:36:50;97871.56;;;12.40;54.21
18396;BME280;76377;45.194;5.734;2024-03-02T09:39:18;97877.31;;;12.08;55.68
18396;BME280;76377;45.194;5.734;2024-03-02T09:41:47;97875.44;;;11.73;56.95
18396;BME280;76377;45.194;5.734;2024-03-02T09:44:14;97867.53;;;11.79;57.04
18396;BME280;76377;45.194;5.734;2024-03-02T09:46:41;97860.44;;;11.60;57.97
18396;BME280;76377;45.194;5.734;2024-03-02T09:49:11;97865.94;;;11.81;57.76
18396;BME280;76377;45.194;5.734;2024-03-02T09:51:38;97869.13;;;11.62;58.20
18396;BME280;76377;45.194;5.734;2024-03-02T09:54:07;97870.00;;;11.45;59.17
18396;BME280;76377;45.194;5.734;2024-03-02T09:56:34;97865.66;;;11.22;60.45
18396;BME280;76377;45.194;5.734;2024-03-02T09:59:01;97858.97;;;10.88;61.45
18396;BME280;76377;45.194;5.734;2024-03-02T10:01:28;97859.38;;;10.75;62.22
18396;BME280;76377;45.194;5.734;2024-03-02T10:03:57;97847.53;;;10.57;64.30
18396;BME280;76377;45.194;5.734;2024-03-02T10:06:28;97845.56;;;10.47;64.36
18396;BME280;76377;45.194;5.734;2024-03-02T10:08:56;97836.06;;;10.62;63.81
18396;BME280;76377;45.194;5.734;2024-03-02T10:11:26;97831.34;;;10.73;63.72
18396;BME280;76377;45.194;5.734;2024-03-02T10:14:04;97829.75;;;10.87;63.93
18396;BME280;76377;45.194;5.734;2024-03-02T10:16:34;97816.72;;;10.62;64.90
18396;BME280;76377;45.194;5.734;2024-03-02T10:19:18;97820.28;;;10.66;65.42
18396;BME280;76377;45.194;5.734;2024-03-02T10:21:48;97813.97;;;10.62;65.97
18396;BME280;76377;45.194;5.734;2024-03-02T10:24:16;97813.19;;;10.72;64.72
18396;BME280;76377;45.194;5.734;2024-03-02T10:26:43;97806.84;;;10.86;63.13
18396;BME280;76377;45.194;5.734;2024-03-02T10:29:11;97797.34;;;10.91;62.70
18396;BME280;76377;45.194;5.734;2024-03-02T10:31:39;97790.19;;;11.18;61.87
18396;BME280;76377;45.194;5.734;2024-03-02T10:34:07;97796.50;;;11.22;59.33
18396;BME280;76377;45.194;5.734;2024-03-02T10:36:34;97790.13;;;11.47;59.14
18396;BME280;76377;45.194;5.734;2024-03-02T10:39:04;97783.06;;;11.28;58.65
18396;BME280;76377;45.194;5.734;2024-03-02T10:41:33;97768.75;;;11.44;58.81
18396;BME280;76377;45.194;5.734;2024-03-02T10:44:02;97773.31;;;11.89;57.29
18396;BME280;76377;45.194;5.734;2024-03-02T10:46:30;97763.63;;;12.22;55.50
18396;BME280;76377;45.194;5.734;2024-03-02T10:48:57;97767.72;;;12.04;55.70
18396;BME280;76377;45.194;5.734;2024-03-02T10:51:26;97758.16;;;12.12;55.25
18396;BME280;76377;45.194;5.734;2024-03-02T10:53:54;97749.75;;;12.26;54.17
18396;BME280;76377;45.194;5.734;2024-03-02T10:56:28;97744.56;;;12.28;54.54
18396;BME280;76377;45.194;5.734;2024-03-02T10:59:02;97734.25;;;12.32;54.85
18396;BME280;76377;45.194;5.734;2024-03-02T11:01:31;97723.75;;;12.57;53.42
18396;BME280;76377;45.194;5.734;2024-03-02T11:04:02;97716.16;;;12.65;52.93
18396;BME280;76377;45.194;5.734;2024-03-02T11:06:32;97699.41;;;13.13;51.52
18396;BME280;76377;45.194;5.734;2024-03-02T11:09:06;97699.09;;;12.67;51.76
18396;BME280;76377;45.194;5.734;2024-03-02T11:11:41;97692.59;;;12.84;51.57
18396;BME280;76377;45.194;5.734;2024-03-02T11:14:14;97678.53;;;13.36;50.49
18396;BME280;76377;45.194;5.734;2024-03-02T11:16:43;97671.31;;;13.42;50.10
18396;BME280;76377;45.194;5.734;2024-03-02T11:19:13;97667.03;;;13.64;50.18
18396;BME280;76377;45.194;5.734;2024-03-02T11:21:41;97663.47;;;13.90;49.68
18396;BME280;76377;45.194;5.734;2024-03-02T11:24:33;97662.19;;;13.95;49.20
18396;BME280;76377;45.194;5.734;2024-03-02T11:27:03;97644.19;;;14.07;49.77
18396;BME280;76377;45.194;5.734;2024-03-02T11:29:48;97633.97;;;14.24;49.28
18396;BME280;76377;45.194;5.734;2024-03-02T11:32:17;97636.41;;;14.41;48.94
18396;BME280;76377;45.194;5.734;2024-03-02T11:34:46;97631.25;;;14.43;48.98
18396;BME280;76377;45.194;5.734;2024-03-02T11:37:16;97620.47;;;14.45;48.16
18396;BME280;76377;45.194;5.734;2024-03-02T11:39:44;97627.00;;;14.35;48.19
18396;BME280;76377;45.194;5.734;2024-03-02T11:42:14;97621.03;;;14.60;47.67
18396;BME280;76377;45.194;5.734;2024-03-02T11:44:43;97613.25;;;14.71;47.57
18396;BME280;76377;45.194;5.734;2024-03-02T11:47:13;97601.25;;;14.94;46.29
18396;BME280;76377;45.194;5.734;2024-03-02T11:49:44;97599.78;;;14.90;46.38
18396;BME280;76377;45.194;5.734;2024-03-02T11:52:13;97603.41;;;14.67;45.25
18396;BME280;76377;45.194;5.734;2024-03-02T11:54:42;97601.97;;;14.98;45.16
18396;BME280;76377;45.194;5.734;2024-03-02T11:57:16;97598.59;;;14.47;45.93
18396;BME280;76377;45.194;5.734;2024-03-02T11:59:45;97599.25;;;14.55;46.07
18396;BME280;76377;45.194;5.734;2024-03-02T12:02:18;97590.63;;;14.26;45.86
18396;BME280;76377;45.194;5.734;2024-03-02T12:04:47;97588.16;;;14.32;46.15
18396;BME280;76377;45.194;5.734;2024-03-02T12:07:19;97572.38;;;14.25;46.38
18396;BME280;76377;45.194;5.734;2024-03-02T12:09:48;97571.59;;;14.25;46.55
18396;BME280;76377;45.194;5.734;2024-03-02T12:12:17;97555.28;;;14.27;47.06
18396;BME280;76377;45.194;5.734;2024-03-02T12:14:50;97562.59;;;14.80;46.10
18396;BME280;76377;45.194;5.734;2024-03-02T12:17:17;97561.44;;;14.97;45.31
18396;BME280;76377;45.194;5.734;2024-03-02T12:19:44;97558.13;;;15.22;45.19
18396;BME280;76377;45.194;5.734;2024-03-02T12:22:12;97554.84;;;15.07;45.02
18396;BME280;76377;45.194;5.734;2024-03-02T12:24:39;97551.88;;;14.98;45.07
18396;BME280;76377;45.194;5.734;2024-03-02T12:27:06;97522.97;;;14.76;44.99
18396;BME280;76377;45.194;5.734;2024-03-02T12:29:35;97512.13;;;14.98;44.72
18396;BME280;76377;45.194;5.734;2024-03-02T12:32:02;97526.22;;;15.43;41.84
18396;BME280;76377;45.194;5.734;2024-03-02T12:34:29;97527.31;;;15.65;40.67
18396;BME280;76377;45.194;5.734;2024-03-02T12:36:57;97519.09;;;15.91;39.59
18396;BME280;76377;45.194;5.734;2024-03-02T12:39:24;97521.41;;;16.25;40.13
18396;BME280;76377;45.194;5.734;2024-03-02T12:41:52;97533.66;;;16.56;36.86
18396;BME280;76377;45.194;5.734;2024-03-02T12:44:20;97529.44;;;16.93;36.25
18396;BME280;76377;45.194;5.734;2024-03-02T12:46:49;97515.16;;;17.17;34.31
18396;BME280;76377;45.194;5.734;2024-03-02T12:49:16;97513.63;;;17.41;34.20
18396;BME280;76377;45.194;5.734;2024-03-02T12:51:44;97519.22;;;17.41;34.22
18396;BME280;76377;45.194;5.734;2024-03-02T12:54:17;97517.88;;;17.71;33.65
18396;BME280;76377;45.194;5.734;2024-03-02T12:56:44;97521.47;;;17.72;32.77
18396;BME280;76377;45.194;5.734;2024-03-02T12:59:18;97519.09;;;17.83;32.57
18396;BME280;76377;45.194;5.734;2024-03-02T13:01:52;97526.16;;;18.09;32.60
18396;BME280;76377;45.194;5.734;2024-03-02T13:04:22;97517.38;;;17.98;32.74
18396;BME280;76377;45.194;5.734;2024-03-02T13:06:50;97529.53;;;18.04;32.78
18396;BME280;76377;45.194;5.734;2024-03-02T13:09:19;97501.97;;;17.81;33.06
18396;BME280;76377;45.194;5.734;2024-03-02T13:11:46;97514.84;;;17.53;33.50
18396;BME280;76377;45.194;5.734;2024-03-02T13:14:13;97515.25;;;17.64;33.14